createdAt,value
2018-06-30T00:01:00.820Z,6.10
2018-06-30T00:04:00.009Z,6.70
2018-06-30T00:06:28.083Z,6.10
2018-06-30T00:08:56.376Z,6.90
2018-06-30T00:11:24.091Z,6.87
2018-06-30T00:13:51.777Z,7.00
2018-06-30T00:16:19.127Z,6.60
2018-06-30T00:18:46.682Z,6.00
2018-06-30T00:21:14.036Z,6.50
2018-06-30T00:23:41.651Z,6.93
2018-06-30T00:26:09.446Z,6.80
2018-06-30T00:28:37.038Z,6.07
2018-06-30T00:31:04.612Z,7.00
2018-06-30T00:33:32.045Z,7.03
2018-06-30T00:35:59.362Z,7.53
2018-06-30T00:38:26.735Z,7.77
2018-06-30T00:40:54.520Z,7.30
2018-06-30T00:43:21.843Z,6.60
2018-06-30T00:45:49.316Z,8.17
2018-06-30T00:48:16.792Z,7.17
2018-06-30T00:50:44.259Z,7.70
2018-06-30T00:53:11.888Z,7.50
2018-06-30T00:55:39.270Z,7.50
2018-06-30T00:58:07.415Z,7.70
2018-06-30T01:00:34.756Z,8.67
2018-06-30T01:03:02.228Z,7.10
2018-06-30T01:05:29.791Z,7.87
2018-06-30T01:07:57.327Z,8.03
2018-06-30T01:10:24.629Z,9.27
2018-06-30T01:12:51.956Z,8.63
2018-06-30T01:15:19.290Z,8.50
2018-06-30T01:17:46.666Z,9.10
2018-06-30T01:20:14.096Z,8.17
2018-06-30T01:22:41.659Z,8.67
2018-06-30T01:25:09.130Z,8.97
2018-06-30T01:27:36.501Z,10.10
2018-06-30T01:30:04.347Z,9.00
2018-06-30T01:32:31.903Z,9.70
2018-06-30T01:34:59.278Z,9.23
2018-06-30T01:37:26.594Z,9.90
2018-06-30T01:39:53.995Z,9.93
2018-06-30T01:42:21.294Z,9.70
2018-06-30T01:44:48.711Z,9.23
2018-06-30T01:47:16.143Z,9.70
2018-06-30T01:49:43.520Z,11.20
2018-06-30T01:52:11.050Z,10.00
2018-06-30T01:54:38.416Z,10.07
2018-06-30T01:57:05.742Z,9.13
2018-06-30T01:59:33.215Z,9.60
2018-06-30T02:02:00.582Z,10.43
2018-06-30T02:04:28.151Z,12.00
2018-06-30T02:06:55.712Z,10.33
2018-06-30T02:09:23.099Z,11.20
2018-06-30T02:11:50.617Z,11.43
2018-06-30T02:14:17.960Z,12.37
2018-06-30T02:16:45.329Z,11.40
2018-06-30T02:19:12.659Z,11.60
2018-06-30T02:21:39.996Z,11.73
2018-06-30T02:24:07.382Z,11.13
2018-06-30T02:26:34.710Z,11.50
2018-06-30T02:29:02.094Z,10.90
2018-06-30T02:31:29.568Z,11.57
2018-06-30T02:33:56.878Z,10.87
2018-06-30T02:36:24.471Z,13.30
2018-06-30T02:38:51.994Z,12.87
2018-06-30T02:41:26.072Z,12.43
2018-06-30T02:43:53.784Z,12.20
2018-06-30T02:46:21.151Z,12.87
2018-06-30T02:48:49.471Z,10.90
2018-06-30T02:51:16.808Z,12.37
2018-06-30T02:53:44.134Z,11.63
2018-06-30T02:56:11.504Z,13.10
2018-06-30T02:58:38.932Z,12.10
2018-06-30T03:01:06.463Z,12.30
2018-06-30T03:03:33.908Z,13.17
2018-06-30T03:06:01.300Z,12.63
2018-06-30T03:08:28.890Z,12.83
2018-06-30T03:10:56.407Z,13.00
2018-06-30T03:13:23.786Z,11.67
2018-06-30T03:15:51.154Z,12.83
2018-06-30T03:18:18.656Z,14.43
2018-06-30T03:20:45.995Z,13.50
2018-06-30T03:23:13.523Z,13.03
2018-06-30T03:25:40.886Z,13.80
2018-06-30T03:28:08.207Z,13.20
2018-06-30T03:30:35.758Z,13.90
2018-06-30T03:33:03.154Z,14.10
2018-06-30T03:35:30.587Z,14.90
2018-06-30T03:37:58.014Z,13.60
2018-06-30T03:40:25.329Z,13.37
2018-06-30T03:42:52.785Z,14.73
2018-06-30T03:45:20.115Z,13.97
2018-06-30T03:47:47.988Z,14.00
2018-06-30T03:50:15.363Z,14.47
2018-06-30T03:52:42.780Z,14.30
2018-06-30T03:55:10.253Z,15.00
2018-06-30T03:57:37.605Z,15.03
2018-06-30T04:00:05.235Z,14.80
2018-06-30T04:02:32.571Z,15.60
2018-06-30T04:04:59.935Z,15.37
2018-06-30T04:07:27.439Z,14.90
2018-06-30T04:09:54.762Z,15.57
2018-06-30T04:12:22.099Z,15.00
2018-06-30T04:14:49.465Z,14.40
2018-06-30T04:17:16.800Z,15.47
2018-06-30T04:19:44.327Z,15.47
2018-06-30T04:22:11.729Z,14.10
2018-06-30T04:24:38.995Z,15.63
2018-06-30T04:27:06.392Z,15.10
2018-06-30T04:29:33.745Z,17.90
2018-06-30T04:32:01.235Z,14.67
2018-06-30T04:34:28.759Z,15.83
2018-06-30T04:36:56.294Z,15.03
2018-06-30T04:39:23.627Z,15.37
2018-06-30T04:41:50.971Z,15.57
2018-06-30T04:44:18.512Z,15.30
2018-06-30T04:46:45.834Z,16.07
2018-06-30T04:49:13.158Z,16.00
2018-06-30T04:51:40.514Z,15.97
2018-06-30T04:54:07.876Z,16.40
2018-06-30T04:56:35.532Z,15.50
2018-06-30T04:59:03.098Z,16.50
2018-06-30T05:01:30.456Z,16.60
2018-06-30T05:03:57.871Z,15.50
2018-06-30T05:06:25.558Z,14.23
2018-06-30T05:08:52.983Z,14.60
2018-06-30T05:11:20.358Z,15.47
2018-06-30T05:13:48.095Z,16.07
2018-06-30T05:16:15.574Z,16.33
2018-06-30T05:18:42.954Z,14.20
2018-06-30T05:21:10.275Z,14.80
2018-06-30T05:23:37.842Z,14.67
2018-06-30T05:26:05.219Z,15.77
2018-06-30T05:28:32.656Z,13.70
2018-06-30T05:31:00.103Z,16.40
2018-06-30T05:33:27.530Z,15.60
2018-06-30T05:35:55.039Z,14.90
2018-06-30T05:38:22.359Z,15.30
2018-06-30T05:40:49.911Z,15.17
2018-06-30T05:43:17.221Z,15.53
2018-06-30T05:45:44.735Z,14.40
2018-06-30T05:48:12.095Z,14.57
2018-06-30T05:50:39.482Z,13.50
2018-06-30T05:53:06.804Z,13.23
2018-06-30T05:55:34.132Z,13.37
2018-06-30T05:58:01.498Z,12.70
2018-06-30T06:00:28.815Z,12.40
2018-06-30T06:02:56.206Z,12.63
2018-06-30T06:05:23.584Z,12.00
2018-06-30T06:07:50.994Z,12.77
2018-06-30T06:10:18.581Z,11.80
2018-06-30T06:12:45.960Z,11.67
2018-06-30T06:15:13.324Z,10.10
2018-06-30T06:17:40.767Z,10.70
2018-06-30T06:20:08.289Z,10.83
2018-06-30T06:22:35.861Z,10.10
2018-06-30T06:25:03.260Z,10.40
2018-06-30T06:27:30.740Z,9.93
2018-06-30T06:29:58.036Z,9.90
2018-06-30T06:32:25.471Z,9.50
2018-06-30T06:34:52.867Z,10.23
2018-06-30T06:37:20.219Z,9.07
2018-06-30T06:39:47.556Z,9.00
2018-06-30T06:42:14.912Z,9.20
2018-06-30T06:44:42.502Z,8.40
2018-06-30T06:47:09.884Z,9.27
2018-06-30T06:49:37.283Z,9.23
2018-06-30T06:52:04.727Z,7.83
2018-06-30T06:54:32.238Z,7.73
2018-06-30T06:56:59.635Z,8.73
2018-06-30T06:59:27.017Z,6.80
2018-06-30T07:01:54.372Z,7.40
2018-06-30T07:04:21.869Z,6.77
2018-06-30T07:06:49.400Z,6.70
2018-06-30T07:09:16.862Z,6.43
2018-06-30T07:11:44.286Z,6.27
2018-06-30T07:14:11.652Z,7.13
2018-06-30T07:16:39.215Z,6.17
2018-06-30T07:19:06.683Z,6.00
2018-06-30T07:21:34.036Z,6.00
2018-06-30T07:24:01.814Z,5.43
2018-06-30T07:26:29.072Z,5.83
2018-06-30T07:28:56.678Z,5.50
2018-06-30T07:31:24.058Z,6.70
2018-06-30T07:33:51.371Z,6.93
2018-06-30T07:36:18.843Z,6.70
2018-06-30T07:38:46.445Z,6.57
2018-06-30T07:41:14.087Z,6.27
2018-06-30T07:43:41.521Z,6.27
2018-06-30T07:46:08.898Z,7.47
2018-06-30T07:48:36.235Z,6.37
2018-06-30T07:51:03.695Z,6.47
2018-06-30T07:53:31.068Z,6.60
2018-06-30T07:55:58.642Z,5.97
2018-06-30T07:58:25.980Z,6.40
2018-06-30T08:00:53.414Z,7.63
2018-06-30T08:03:20.894Z,6.90
2018-06-30T08:05:49.780Z,6.83
2018-06-30T08:08:17.146Z,5.60
2018-06-30T08:10:44.480Z,5.90
2018-06-30T08:13:11.838Z,6.43
2018-06-30T08:15:39.187Z,6.03
2018-06-30T08:18:06.749Z,6.10
2018-06-30T08:20:34.124Z,5.57
2018-06-30T08:23:01.552Z,6.77
2018-06-30T08:25:28.990Z,5.43
2018-06-30T08:27:56.359Z,5.97
2018-06-30T08:30:23.707Z,5.63
2018-06-30T08:32:51.180Z,6.73
2018-06-30T08:35:18.540Z,7.20
2018-06-30T08:37:45.927Z,6.10
2018-06-30T08:40:13.236Z,6.17
2018-06-30T08:42:40.909Z,6.50
2018-06-30T08:45:08.275Z,6.40
2018-06-30T08:47:35.707Z,6.60
2018-06-30T08:50:03.071Z,7.00
2018-06-30T08:52:30.451Z,5.50
2018-06-30T08:54:57.780Z,5.50
2018-06-30T08:57:25.374Z,5.83
2018-06-30T08:59:53.022Z,5.10
2018-06-30T09:02:20.516Z,6.20
2018-06-30T09:04:48.123Z,5.73
2018-06-30T09:07:15.497Z,5.77
2018-06-30T09:09:44.073Z,5.37
2018-06-30T09:12:11.413Z,5.07
2018-06-30T09:14:38.787Z,4.97
2018-06-30T09:17:06.125Z,5.30
2018-06-30T09:19:33.491Z,5.10
2018-06-30T09:22:00.922Z,5.40
2018-06-30T09:24:28.303Z,5.03
2018-06-30T09:26:55.621Z,5.17
2018-06-30T09:29:22.994Z,5.10
2018-06-30T09:31:50.459Z,3.97
2018-06-30T09:34:17.943Z,3.93
2018-06-30T09:36:45.362Z,3.67
2018-06-30T09:39:12.752Z,4.10
2018-06-30T09:41:40.363Z,3.23
2018-06-30T09:44:08.272Z,3.60
2018-06-30T09:46:35.990Z,2.80
2018-06-30T09:49:03.439Z,2.90
2018-06-30T09:51:31.001Z,3.43
2018-06-30T09:53:58.671Z,3.43
2018-06-30T09:56:26.221Z,3.23
2018-06-30T09:58:53.611Z,3.67
2018-06-30T10:01:20.995Z,2.70
2018-06-30T10:03:48.405Z,3.13
2018-06-30T10:06:15.992Z,3.50
2018-06-30T10:08:43.553Z,2.80
2018-06-30T10:11:11.116Z,2.90
2018-06-30T10:13:38.781Z,2.97
2018-06-30T10:16:06.165Z,2.73
2018-06-30T10:18:33.497Z,3.37
2018-06-30T10:21:01.094Z,2.80
2018-06-30T10:23:28.263Z,3.30
2018-06-30T10:25:55.652Z,3.27
2018-06-30T10:28:23.304Z,2.63
2018-06-30T10:30:50.630Z,3.03
2018-06-30T10:33:17.971Z,2.73
2018-06-30T10:35:45.368Z,3.40
2018-06-30T10:38:12.677Z,3.17
2018-06-30T10:40:40.195Z,3.13
2018-06-30T10:43:07.496Z,3.17
2018-06-30T10:45:35.047Z,2.97
2018-06-30T10:48:02.717Z,3.43
2018-06-30T10:50:30.315Z,3.50
2018-06-30T10:52:57.643Z,3.10
2018-06-30T10:55:25.049Z,3.43
2018-06-30T10:57:52.446Z,3.20
2018-06-30T11:00:19.941Z,3.10
2018-06-30T11:02:47.275Z,2.57
2018-06-30T11:05:14.776Z,3.47
2018-06-30T11:07:42.095Z,2.70
2018-06-30T11:10:10.144Z,3.00
2018-06-30T11:12:37.531Z,2.37
2018-06-30T11:15:04.963Z,3.03
2018-06-30T11:17:32.521Z,2.80
2018-06-30T11:19:59.887Z,3.50
2018-06-30T11:22:27.407Z,2.83
2018-06-30T11:24:54.915Z,3.03
2018-06-30T11:27:22.575Z,2.90
2018-06-30T11:29:50.040Z,3.27
2018-06-30T11:32:17.476Z,4.43
2018-06-30T11:34:44.835Z,3.60
2018-06-30T11:37:12.151Z,3.27
2018-06-30T11:39:39.491Z,4.33
2018-06-30T11:42:06.891Z,4.00
2018-06-30T11:44:34.651Z,3.80
2018-06-30T11:47:02.115Z,3.90
2018-06-30T11:49:29.685Z,3.70
2018-06-30T11:51:57.030Z,3.27
2018-06-30T11:54:24.371Z,3.47
2018-06-30T11:56:51.892Z,3.13
2018-06-30T11:59:19.382Z,3.20
2018-06-30T12:01:46.747Z,2.77
2018-06-30T12:04:14.191Z,3.07
2018-06-30T12:06:41.512Z,2.87
2018-06-30T12:09:09.743Z,3.10
2018-06-30T12:11:37.286Z,2.53
2018-06-30T12:14:05.474Z,3.63
2018-06-30T12:16:33.075Z,3.30
2018-06-30T12:19:00.477Z,3.40
2018-06-30T12:21:28.019Z,3.77
2018-06-30T12:23:55.589Z,3.60
2018-06-30T12:26:23.041Z,3.20
2018-06-30T12:28:50.404Z,2.60
2018-06-30T12:31:17.758Z,2.67
2018-06-30T12:33:45.224Z,2.77
2018-06-30T12:36:12.564Z,2.83
2018-06-30T12:38:40.102Z,2.70
2018-06-30T12:41:07.468Z,2.43
2018-06-30T12:43:34.854Z,2.23
2018-06-30T12:46:02.293Z,2.13
2018-06-30T12:48:29.952Z,1.87
2018-06-30T12:50:57.437Z,3.00
2018-06-30T12:53:24.787Z,2.80
2018-06-30T12:55:52.155Z,2.20
2018-06-30T12:58:19.476Z,2.10
2018-06-30T13:00:46.847Z,2.23
2018-06-30T13:03:14.274Z,2.80
2018-06-30T13:05:41.656Z,2.90
2018-06-30T13:08:08.981Z,2.67
2018-06-30T13:10:36.359Z,2.97
2018-06-30T13:13:03.701Z,2.60
2018-06-30T13:15:31.240Z,3.37
2018-06-30T13:17:58.632Z,3.40
2018-06-30T13:20:26.064Z,2.60
2018-06-30T13:22:53.420Z,2.00
2018-06-30T13:25:20.772Z,1.93
2018-06-30T13:27:48.261Z,1.37
2018-06-30T13:30:15.592Z,1.60
2018-06-30T13:32:43.074Z,2.13
2018-06-30T13:35:10.394Z,1.63
2018-06-30T13:37:37.740Z,1.50
2018-06-30T13:40:05.239Z,1.63
2018-06-30T13:42:32.532Z,1.43
2018-06-30T13:45:00.006Z,1.67
2018-06-30T13:47:27.359Z,1.60
2018-06-30T13:49:54.742Z,1.43
2018-06-30T13:52:22.074Z,1.33
2018-06-30T13:54:49.459Z,1.53
2018-06-30T13:57:16.784Z,1.47
2018-06-30T13:59:44.187Z,1.40
2018-06-30T14:02:11.536Z,1.27
2018-06-30T14:04:38.884Z,1.77
2018-06-30T14:07:06.311Z,1.63
2018-06-30T14:09:33.580Z,1.73
2018-06-30T14:12:00.924Z,1.70
2018-06-30T14:14:28.432Z,2.00
2018-06-30T14:16:55.943Z,1.80
2018-06-30T14:19:23.413Z,2.20
2018-06-30T14:21:50.871Z,1.77
2018-06-30T14:24:18.405Z,1.80
2018-06-30T14:26:45.759Z,1.90
2018-06-30T14:29:13.210Z,1.90
2018-06-30T14:31:40.568Z,1.77
2018-06-30T14:34:07.953Z,2.57
2018-06-30T14:36:35.372Z,2.40
2018-06-30T14:39:02.812Z,2.27
2018-06-30T14:41:30.148Z,1.60
2018-06-30T14:43:57.508Z,1.67
2018-06-30T14:46:24.899Z,1.80
2018-06-30T14:48:52.342Z,1.63
2018-06-30T14:51:19.691Z,1.90
2018-06-30T14:53:47.059Z,2.03
2018-06-30T14:56:14.408Z,2.00
2018-06-30T14:58:41.841Z,1.83
2018-06-30T15:01:09.344Z,2.40
2018-06-30T15:03:36.775Z,1.97
2018-06-30T15:06:04.152Z,1.40
2018-06-30T15:08:31.547Z,1.60
2018-06-30T15:10:58.887Z,2.47
2018-06-30T15:13:26.228Z,1.73
2018-06-30T15:15:53.574Z,1.67
2018-06-30T15:18:20.924Z,1.73
2018-06-30T15:20:48.255Z,1.80
2018-06-30T15:23:15.603Z,1.90
2018-06-30T15:25:42.975Z,1.60
2018-06-30T15:28:10.328Z,1.80
2018-06-30T15:30:37.794Z,1.70
2018-06-30T15:33:05.129Z,1.83
2018-06-30T15:35:32.621Z,2.00
2018-06-30T15:37:59.938Z,2.23
2018-06-30T15:40:27.429Z,2.00
2018-06-30T15:42:54.765Z,2.27
2018-06-30T15:45:22.136Z,2.13
2018-06-30T15:47:49.436Z,2.03
2018-06-30T15:50:16.755Z,2.50
2018-06-30T15:52:44.305Z,1.90
2018-06-30T15:55:11.651Z,1.80
2018-06-30T15:57:39.007Z,1.47
2018-06-30T16:00:06.951Z,2.03
2018-06-30T16:02:34.634Z,1.43
2018-06-30T16:05:02.067Z,1.87
2018-06-30T16:07:29.454Z,2.20
2018-06-30T16:09:56.907Z,1.50
2018-06-30T16:12:24.242Z,1.40
2018-06-30T16:14:51.575Z,1.70
2018-06-30T16:17:19.064Z,1.13
2018-06-30T16:19:46.417Z,1.80
2018-06-30T16:22:13.824Z,2.23
2018-06-30T16:24:41.181Z,1.77
2018-06-30T16:27:08.558Z,1.50
2018-06-30T16:29:35.911Z,2.07
2018-06-30T16:32:03.371Z,1.53
2018-06-30T16:34:30.852Z,1.10
2018-06-30T16:36:58.320Z,1.60
2018-06-30T16:39:25.811Z,1.57
2018-06-30T16:41:53.207Z,1.53
2018-06-30T16:44:20.589Z,1.30
2018-06-30T16:46:47.920Z,1.10
2018-06-30T16:49:15.315Z,1.80
2018-06-30T16:51:42.689Z,1.37
2018-06-30T16:54:10.118Z,1.00
2018-06-30T16:56:37.630Z,1.00
2018-06-30T16:59:05.000Z,1.10
2018-06-30T17:01:32.372Z,1.10
2018-06-30T17:03:59.852Z,1.23
2018-06-30T17:06:27.292Z,1.30
2018-06-30T17:08:54.727Z,1.47
2018-06-30T17:11:22.058Z,1.00
2018-06-30T17:13:49.487Z,1.30
2018-06-30T17:16:16.987Z,1.27
2018-06-30T17:18:44.364Z,1.10
2018-06-30T17:21:11.826Z,1.47
2018-06-30T17:23:39.202Z,1.30
2018-06-30T17:26:06.692Z,1.10
2018-06-30T17:28:34.062Z,0.90
2018-06-30T17:31:01.399Z,1.20
2018-06-30T17:33:28.779Z,0.90
2018-06-30T17:35:56.139Z,0.97
2018-06-30T17:38:23.599Z,0.97
2018-06-30T17:40:51.079Z,0.87
2018-06-30T17:43:18.421Z,1.30
2018-06-30T17:45:45.785Z,1.77
2018-06-30T17:48:13.103Z,1.60
2018-06-30T17:50:40.666Z,1.43
2018-06-30T17:53:08.123Z,2.30
2018-06-30T17:55:35.477Z,1.30
2018-06-30T17:58:02.813Z,1.00
2018-06-30T18:00:30.292Z,1.17
2018-06-30T18:02:57.636Z,1.00
2018-06-30T18:05:25.159Z,1.00
2018-06-30T18:07:52.678Z,0.77
2018-06-30T18:10:20.017Z,1.20
2018-06-30T18:12:47.489Z,1.70
2018-06-30T18:15:14.989Z,0.90
2018-06-30T18:17:42.586Z,1.07
2018-06-30T18:20:09.942Z,1.17
2018-06-30T18:22:37.267Z,0.90
2018-06-30T18:25:04.671Z,1.00
2018-06-30T18:27:32.049Z,0.90
2018-06-30T18:30:06.353Z,0.80
2018-06-30T18:32:33.789Z,0.77
2018-06-30T18:35:01.155Z,0.87
2018-06-30T18:37:28.528Z,1.00
2018-06-30T18:39:55.853Z,0.97
2018-06-30T18:42:23.226Z,0.70
2018-06-30T18:44:50.667Z,0.93
2018-06-30T18:47:18.044Z,0.80
2018-06-30T18:49:45.468Z,0.60
2018-06-30T18:52:13.042Z,0.70
2018-06-30T18:54:40.355Z,1.17
2018-06-30T18:57:07.709Z,1.00
2018-06-30T18:59:35.090Z,1.10
2018-06-30T19:02:02.447Z,0.70
2018-06-30T19:04:29.872Z,0.90
2018-06-30T19:06:57.236Z,0.90
2018-06-30T19:09:24.580Z,0.93
2018-06-30T19:11:52.072Z,0.93
2018-06-30T19:14:19.401Z,1.20
2018-06-30T19:16:46.764Z,0.90
2018-06-30T19:19:14.385Z,0.63
2018-06-30T19:21:41.735Z,0.53
2018-06-30T19:24:09.092Z,0.63
2018-06-30T19:26:36.590Z,0.70
2018-06-30T19:29:04.151Z,0.63
2018-06-30T19:31:31.524Z,0.80
2018-06-30T19:33:58.911Z,0.60
2018-06-30T19:36:26.319Z,0.50
2018-06-30T19:38:53.660Z,0.70
2018-06-30T19:41:21.041Z,0.60
2018-06-30T19:43:48.426Z,0.70
2018-06-30T19:46:15.873Z,1.13
2018-06-30T19:48:43.194Z,0.93
2018-06-30T19:51:10.595Z,0.63
2018-06-30T19:53:37.979Z,0.60
2018-06-30T19:56:05.464Z,0.50
2018-06-30T19:58:32.980Z,0.70
2018-06-30T20:01:00.314Z,0.43
2018-06-30T20:03:27.730Z,0.80
2018-06-30T20:05:55.129Z,1.47
2018-06-30T20:08:22.484Z,1.00
2018-06-30T20:10:49.884Z,0.90
2018-06-30T20:13:17.469Z,0.87
2018-06-30T20:15:44.914Z,0.57
2018-06-30T20:18:12.253Z,0.70
2018-06-30T20:20:40.130Z,0.70
2018-06-30T20:23:07.521Z,0.83
2018-06-30T20:25:34.937Z,0.70
2018-06-30T20:28:02.375Z,0.80
2018-06-30T20:30:29.816Z,0.67
2018-06-30T20:32:57.270Z,0.60
2018-06-30T20:35:24.668Z,0.60
2018-06-30T20:37:51.982Z,0.70
2018-06-30T20:40:19.368Z,0.70
2018-06-30T20:42:46.900Z,0.60
2018-06-30T20:45:14.355Z,0.70
2018-06-30T20:47:41.778Z,0.70
2018-06-30T20:50:09.175Z,1.13
2018-06-30T20:52:36.617Z,0.97
2018-06-30T20:55:04.111Z,0.90
2018-06-30T20:57:31.445Z,0.80
2018-06-30T20:59:58.787Z,1.30
2018-06-30T21:02:26.411Z,0.83
2018-06-30T21:04:53.876Z,1.10
2018-06-30T21:07:21.338Z,1.00
2018-06-30T21:09:48.857Z,0.83
2018-06-30T21:12:16.448Z,1.10
2018-06-30T21:14:44.163Z,1.20
2018-06-30T21:17:11.510Z,1.00
2018-06-30T21:19:38.985Z,0.97
2018-06-30T21:22:06.405Z,0.63
2018-06-30T21:24:33.759Z,1.10
2018-06-30T21:27:01.529Z,0.97
2018-06-30T21:29:28.917Z,0.80
2018-06-30T21:31:56.454Z,0.73
2018-06-30T21:34:23.798Z,1.00
2018-06-30T21:36:51.252Z,1.17
2018-06-30T21:39:18.610Z,0.93
2018-06-30T21:41:45.967Z,0.90
2018-06-30T21:44:13.503Z,0.70
2018-06-30T21:46:40.886Z,1.33
2018-06-30T21:49:08.266Z,1.00
2018-06-30T21:51:35.618Z,0.83
2018-06-30T21:54:03.007Z,1.03
2018-06-30T21:56:30.360Z,0.90
2018-06-30T21:58:57.820Z,1.10
2018-06-30T22:01:27.059Z,0.80
2018-06-30T22:03:55.122Z,0.90
2018-06-30T22:06:22.444Z,2.00
2018-06-30T22:08:49.856Z,1.10
2018-06-30T22:11:17.281Z,1.13
2018-06-30T22:13:44.658Z,0.87
2018-06-30T22:16:12.096Z,0.90
2018-06-30T22:18:39.661Z,0.90
2018-06-30T22:21:07.073Z,0.80
2018-06-30T22:23:34.567Z,1.10
2018-06-30T22:26:01.911Z,1.20
2018-06-30T22:28:29.292Z,1.00
2018-06-30T22:30:56.656Z,1.23
2018-06-30T22:33:24.306Z,1.30
2018-06-30T22:35:51.910Z,0.90
2018-06-30T22:38:19.257Z,1.00
2018-06-30T22:40:46.690Z,1.13
2018-06-30T22:43:14.011Z,0.67
2018-06-30T22:45:41.375Z,0.83
2018-06-30T22:48:08.731Z,1.27
2018-06-30T22:50:36.085Z,1.10
2018-06-30T22:53:03.456Z,1.00
2018-06-30T22:55:30.777Z,1.00
2018-06-30T22:57:58.804Z,0.77
2018-06-30T23:00:26.159Z,0.97
2018-06-30T23:02:53.570Z,0.90
2018-06-30T23:05:20.896Z,1.20
2018-06-30T23:07:48.187Z,1.27
2018-06-30T23:10:15.645Z,0.87
2018-06-30T23:12:43.800Z,0.73
2018-06-30T23:15:11.769Z,1.43
2018-06-30T23:17:39.212Z,1.17
2018-06-30T23:20:06.995Z,0.80
2018-06-30T23:22:41.779Z,2.00
2018-06-30T23:25:09.163Z,1.00
2018-06-30T23:27:37.132Z,0.80
2018-06-30T23:30:04.903Z,0.90
2018-06-30T23:32:32.440Z,1.20
2018-06-30T23:34:59.819Z,0.97
2018-06-30T23:37:27.171Z,1.20
2018-06-30T23:39:54.527Z,1.10
2018-06-30T23:42:21.884Z,0.83
2018-06-30T23:44:49.423Z,1.27
2018-06-30T23:47:16.955Z,1.10
2018-06-30T23:49:44.266Z,1.07
2018-06-30T23:52:11.780Z,1.20
2018-06-30T23:54:39.095Z,0.90
2018-06-30T23:57:06.464Z,1.00
2018-06-30T23:59:33.824Z,1.13
